sensor_id;sensor_type;location;lat;lon;timestamp;pressure;altitude;pressure_sealevel;temperature;humidity
35676;BME280;21790;42.668;23.298;2023-06-19T00:07:51;94805.94;;;24.65;44.13
35676;BME280;21790;42.668;23.298;2023-06-19T00:17:23;94809.38;;;24.71;44.01
35676;BME280;21790;42.668;23.298;2023-06-19T00:25:59;94787.88;;;24.68;44.52
35676;BME280;21790;42.668;23.298;2023-06-19T05:22:07;94784.09;;;26.75;41.43
35676;BME280;21790;42.668;23.298;2023-06-19T05:24:54;94789.63;;;26.88;41.85
35676;BME280;21790;42.668;23.298;2023-06-19T05:27:39;94792.59;;;26.83;41.70
35676;BME280;21790;42.668;23.298;2023-06-19T05:30:06;94791.28;;;26.84;41.47
35676;BME280;21790;42.668;23.298;2023-06-19T05:32:48;94802.09;;;26.93;41.56
35676;BME280;21790;42.668;23.298;2023-06-19T05:35:22;94798.88;;;26.89;41.61
35676;BME280;21790;42.668;23.298;2023-06-19T05:38:19;94807.72;;;27.00;41.26
35676;BME280;21790;42.668;23.298;2023-06-19T05:41:06;94809.25;;;27.09;41.36
35676;BME280;21790;42.668;23.298;2023-06-19T05:43:45;94811.91;;;27.15;41.43
35676;BME280;21790;42.668;23.298;2023-06-19T05:46:17;94813.22;;;27.21;41.13
35676;BME280;21790;42.668;23.298;2023-06-19T05:48:57;94814.34;;;27.26;40.69
35676;BME280;21790;42.668;23.298;2023-06-19T05:51:39;94814.31;;;27.33;40.68
35676;BME280;21790;42.668;23.298;2023-06-19T05:54:19;94817.16;;;27.41;40.94
35676;BME280;21790;42.668;23.298;2023-06-19T05:56:56;94811.47;;;27.56;40.45
35676;BME280;21790;42.668;23.298;2023-06-19T05:59:33;94817.88;;;27.64;40.40
35676;BME280;21790;42.668;23.298;2023-06-19T06:02:00;94819.97;;;27.64;40.51
35676;BME280;21790;42.668;23.298;2023-06-19T06:04:27;94818.44;;;27.70;40.47
35676;BME280;21790;42.668;23.298;2023-06-19T06:07:28;94818.44;;;27.70;40.65
35676;BME280;21790;42.668;23.298;2023-06-19T06:09:58;94821.44;;;27.72;40.55
35676;BME280;21790;42.668;23.298;2023-06-19T06:12:44;94819.34;;;27.80;40.09
35676;BME280;21790;42.668;23.298;2023-06-19T06:18:31;94828.78;;;27.83;40.44
35676;BME280;21790;42.668;23.298;2023-06-19T06:21:03;94826.16;;;27.85;39.90
35676;BME280;21790;42.668;23.298;2023-06-19T06:23:31;94822.78;;;27.71;40.56
35676;BME280;21790;42.668;23.298;2023-06-19T06:25:59;94831.47;;;27.81;40.84
35676;BME280;21790;42.668;23.298;2023-06-19T06:31:30;94841.41;;;28.05;40.57
35676;BME280;21790;42.668;23.298;2023-06-19T06:34:03;94826.56;;;28.21;38.74
35676;BME280;21790;42.668;23.298;2023-06-19T06:36:46;94823.72;;;28.29;39.08
35676;BME280;21790;42.668;23.298;2023-06-19T06:39:15;94823.91;;;28.31;39.55
35676;BME280;21790;42.668;23.298;2023-06-19T06:41:44;94831.59;;;28.38;39.42
35676;BME280;21790;42.668;23.298;2023-06-19T06:44:11;94829.38;;;28.37;39.49
35676;BME280;21790;42.668;23.298;2023-06-19T06:46:37;94830.28;;;28.39;39.65
35676;BME280;21790;42.668;23.298;2023-06-19T06:49:04;94841.31;;;28.35;39.04
35676;BME280;21790;42.668;23.298;2023-06-19T06:51:32;94835.75;;;28.45;39.11
35676;BME280;21790;42.668;23.298;2023-06-19T06:54:10;94833.41;;;28.58;38.89
35676;BME280;21790;42.668;23.298;2023-06-19T06:56:36;94831.81;;;28.65;38.42
35676;BME280;21790;42.668;23.298;2023-06-19T06:59:13;94836.28;;;28.83;37.83
35676;BME280;21790;42.668;23.298;2023-06-19T07:01:57;94829.50;;;28.79;36.99
35676;BME280;21790;42.668;23.298;2023-06-19T07:04:27;94826.75;;;28.88;37.72
35676;BME280;21790;42.668;23.298;2023-06-19T07:10:15;94834.13;;;28.91;37.28
35676;BME280;21790;42.668;23.298;2023-06-19T07:15:50;94826.28;;;28.99;37.81
35676;BME280;21790;42.668;23.298;2023-06-19T07:21:59;94821.69;;;29.04;37.38
35676;BME280;21790;42.668;23.298;2023-06-19T07:31:28;94833.97;;;29.31;36.20
35676;BME280;21790;42.668;23.298;2023-06-19T07:33:55;94828.13;;;29.29;36.76
35676;BME280;21790;42.668;23.298;2023-06-19T07:36:28;94840.41;;;29.39;36.22
35676;BME280;21790;42.668;23.298;2023-06-19T07:39:05;94834.13;;;29.16;36.14
35676;BME280;21790;42.668;23.298;2023-06-19T07:59:34;94840.78;;;29.78;35.42
35676;BME280;21790;42.668;23.298;2023-06-19T08:02:00;94843.94;;;29.82;35.78
35676;BME280;21790;42.668;23.298;2023-06-19T08:05:01;94831.50;;;29.95;36.48
35676;BME280;21790;42.668;23.298;2023-06-19T08:07:40;94829.44;;;29.70;35.96
35676;BME280;21790;42.668;23.298;2023-06-19T08:10:14;94829.03;;;29.74;35.78
35676;BME280;21790;42.668;23.298;2023-06-19T08:12:46;94835.84;;;29.78;36.25
35676;BME280;21790;42.668;23.298;2023-06-19T08:15:12;94840.78;;;29.78;36.57
35676;BME280;21790;42.668;23.298;2023-06-19T08:17:47;94835.91;;;29.88;36.05
35676;BME280;21790;42.668;23.298;2023-06-19T08:20:15;94835.72;;;29.51;35.89
35676;BME280;21790;42.668;23.298;2023-06-19T08:22:55;94831.88;;;29.57;34.63
35676;BME280;21790;42.668;23.298;2023-06-19T08:28:52;94829.88;;;29.67;35.12
35676;BME280;21790;42.668;23.298;2023-06-19T08:31:18;94831.53;;;29.52;34.88
35676;BME280;21790;42.668;23.298;2023-06-19T08:33:53;94826.00;;;29.55;34.28
35676;BME280;21790;42.668;23.298;2023-06-19T08:36:28;94831.53;;;29.70;34.07
35676;BME280;21790;42.668;23.298;2023-06-19T08:39:17;94837.28;;;30.04;33.71
35676;BME280;21790;42.668;23.298;2023-06-19T08:42:10;94837.00;;;30.10;33.32
35676;BME280;21790;42.668;23.298;2023-06-19T08:44:41;94823.63;;;30.29;33.92
35676;BME280;21790;42.668;23.298;2023-06-19T08:47:13;94841.06;;;30.33;33.18
35676;BME280;21790;42.668;23.298;2023-06-19T08:52:25;94829.91;;;30.28;33.30
35676;BME280;21790;42.668;23.298;2023-06-19T08:58:11;94823.69;;;30.39;32.34
35676;BME280;21790;42.668;23.298;2023-06-19T09:00:38;94830.94;;;30.23;32.42
35676;BME280;21790;42.668;23.298;2023-06-19T09:03:23;94828.44;;;30.27;33.78
35676;BME280;21790;42.668;23.298;2023-06-19T09:06:03;94836.69;;;30.06;32.36
35676;BME280;21790;42.668;23.298;2023-06-19T09:08:32;94837.41;;;30.23;32.91
35676;BME280;21790;42.668;23.298;2023-06-19T09:11:17;94835.75;;;30.20;32.23
35676;BME280;21790;42.668;23.298;2023-06-19T09:13:57;94833.75;;;30.40;32.79
35676;BME280;21790;42.668;23.298;2023-06-19T09:16:40;94824.47;;;30.66;32.28
35676;BME280;21790;42.668;23.298;2023-06-19T09:19:08;94830.31;;;30.59;31.52
35676;BME280;21790;42.668;23.298;2023-06-19T09:21:59;94822.44;;;30.50;31.60
35676;BME280;21790;42.668;23.298;2023-06-19T09:27:36;94828.94;;;30.33;33.36
35676;BME280;21790;42.668;23.298;2023-06-19T09:30:05;94828.47;;;30.54;31.94
35676;BME280;21790;42.668;23.298;2023-06-19T09:32:46;94816.84;;;30.69;30.45
35676;BME280;21790;42.668;23.298;2023-06-19T09:35:12;94818.69;;;30.84;30.96
35676;BME280;21790;42.668;23.298;2023-06-19T09:37:45;94822.22;;;30.92;30.82
35676;BME280;21790;42.668;23.298;2023-06-19T09:40:13;94824.94;;;30.99;30.53
35676;BME280;21790;42.668;23.298;2023-06-19T09:42:44;94827.75;;;30.90;31.54
35676;BME280;21790;42.668;23.298;2023-06-19T09:45:29;94822.81;;;31.00;31.52
35676;BME280;21790;42.668;23.298;2023-06-19T09:48:12;94828.69;;;31.02;30.53
35676;BME280;21790;42.668;23.298;2023-06-19T09:53:58;94819.34;;;30.92;31.41
35676;BME280;21790;42.668;23.298;2023-06-19T09:56:53;94822.06;;;30.99;31.31
35676;BME280;21790;42.668;23.298;2023-06-19T09:59:41;94819.38;;;31.01;31.41
35676;BME280;21790;42.668;23.298;2023-06-19T10:02:29;94826.69;;;31.22;32.02
35676;BME280;21790;42.668;23.298;2023-06-19T10:05:07;94821.22;;;31.06;30.65
35676;BME280;21790;42.668;23.298;2023-06-19T10:07:45;94814.75;;;31.06;30.57
35676;BME280;21790;42.668;23.298;2023-06-19T10:10:48;94823.31;;;31.06;31.02
35676;BME280;21790;42.668;23.298;2023-06-19T10:13:20;94818.03;;;31.02;29.34
35676;BME280;21790;42.668;23.298;2023-06-19T10:15:49;94809.16;;;30.98;30.93
35676;BME280;21790;42.668;23.298;2023-06-19T10:18:22;94811.69;;;30.94;30.13
35676;BME280;21790;42.668;23.298;2023-06-19T10:20:54;94803.38;;;30.79;29.64
35676;BME280;21790;42.668;23.298;2023-06-19T10:23:27;94802.97;;;30.92;29.47
35676;BME280;21790;42.668;23.298;2023-06-19T10:26:02;94786.72;;;30.85;29.73
35676;BME280;21790;42.668;23.298;2023-06-19T10:28:57;94791.88;;;30.96;29.69
35676;BME280;21790;42.668;23.298;2023-06-19T10:31:33;94798.63;;;30.91;30.41
35676;BME280;21790;42.668;23.298;2023-06-19T10:34:02;94789.59;;;30.85;29.79
35676;BME280;21790;42.668;23.298;2023-06-19T10:36:28;94791.78;;;30.77;29.52
35676;BME280;21790;42.668;23.298;2023-06-19T10:44:12;94777.41;;;30.85;31.16
35676;BME280;21790;42.668;23.298;2023-06-19T10:46:54;94787.97;;;30.92;30.77
35676;BME280;21790;42.668;23.298;2023-06-19T10:49:23;94777.31;;;30.92;30.77
35676;BME280;21790;42.668;23.298;2023-06-19T10:52:00;94788.81;;;30.85;30.07
35676;BME280;21790;42.668;23.298;2023-06-19T10:54:28;94779.78;;;30.79;31.00
35676;BME280;21790;42.668;23.298;2023-06-19T11:04:38;94769.38;;;30.37;32.21
35676;BME280;21790;42.668;23.298;2023-06-19T11:07:05;94764.28;;;30.45;32.20
35676;BME280;21790;42.668;23.298;2023-06-19T11:09:32;94750.31;;;30.13;32.60
35676;BME280;21790;42.668;23.298;2023-06-19T11:11:58;94776.19;;;30.24;32.66
35676;BME280;21790;42.668;23.298;2023-06-19T11:14:34;94772.72;;;30.16;33.95
35676;BME280;21790;42.668;23.298;2023-06-19T11:17:07;94776.53;;;30.11;32.94
35676;BME280;21790;42.668;23.298;2023-06-19T11:19:41;94784.50;;;30.13;33.54
35676;BME280;21790;42.668;23.298;2023-06-19T11:22:17;94777.25;;;30.29;33.18
35676;BME280;21790;42.668;23.298;2023-06-19T11:24:54;94762.72;;;30.52;32.06
35676;BME280;21790;42.668;23.298;2023-06-19T11:27:44;94767.09;;;30.35;33.67
35676;BME280;21790;42.668;23.298;2023-06-19T11:30:29;94768.16;;;30.13;34.27
35676;BME280;21790;42.668;23.298;2023-06-19T11:33:20;94762.91;;;30.37;34.45
35676;BME280;21790;42.668;23.298;2023-06-19T11:35:52;94763.94;;;30.31;33.38
35676;BME280;21790;42.668;23.298;2023-06-19T11:38:19;94760.84;;;30.47;33.66
35676;BME280;21790;42.668;23.298;2023-06-19T11:40:45;94763.44;;;30.25;33.84
35676;BME280;21790;42.668;23.298;2023-06-19T11:43:11;94754.59;;;30.21;34.86
35676;BME280;21790;42.668;23.298;2023-06-19T11:45:49;94764.25;;;30.62;33.60
35676;BME280;21790;42.668;23.298;2023-06-19T11:48:23;94761.53;;;30.55;34.50
35676;BME280;21790;42.668;23.298;2023-06-19T11:50:49;94758.44;;;30.70;33.52
35676;BME280;21790;42.668;23.298;2023-06-19T11:53:16;94760.09;;;30.73;33.81
35676;BME280;21790;42.668;23.298;2023-06-19T11:55:44;94745.31;;;30.57;33.48
35676;BME280;21790;42.668;23.298;2023-06-19T11:58:11;94751.81;;;30.14;34.35
35676;BME280;21790;42.668;23.298;2023-06-19T12:00:36;94737.63;;;30.23;33.53
35676;BME280;21790;42.668;23.298;2023-06-19T12:03:03;94754.63;;;30.31;34.79
35676;BME280;21790;42.668;23.298;2023-06-19T12:05:28;94750.16;;;30.38;34.40
35676;BME280;21790;42.668;23.298;2023-06-19T12:07:54;94745.59;;;30.25;34.14
35676;BME280;21790;42.668;23.298;2023-06-19T12:10:20;94746.78;;;30.22;35.08
35676;BME280;21790;42.668;23.298;2023-06-19T12:12:45;94750.38;;;30.22;35.02
35676;BME280;21790;42.668;23.298;2023-06-19T12:15:11;94737.09;;;30.34;34.45
35676;BME280;21790;42.668;23.298;2023-06-19T12:17:36;94743.06;;;30.29;34.31
35676;BME280;21790;42.668;23.298;2023-06-19T12:20:03;94752.13;;;30.18;33.74
35676;BME280;21790;42.668;23.298;2023-06-19T12:22:35;94745.81;;;30.10;35.17
35676;BME280;21790;42.668;23.298;2023-06-19T12:25:01;94745.41;;;30.23;35.54
35676;BME280;21790;42.668;23.298;2023-06-19T12:27:32;94736.97;;;30.42;34.98
35676;BME280;21790;42.668;23.298;2023-06-19T12:29:58;94744.56;;;30.03;34.25
35676;BME280;21790;42.668;23.298;2023-06-19T12:32:33;94731.38;;;30.34;33.80
35676;BME280;21790;42.668;23.298;2023-06-19T12:35:01;94736.06;;;30.40;33.68
35676;BME280;21790;42.668;23.298;2023-06-19T12:37:28;94737.97;;;30.27;34.21
35676;BME280;21790;42.668;23.298;2023-06-19T12:39:53;94731.06;;;30.30;33.87
35676;BME280;21790;42.668;23.298;2023-06-19T12:42:19;94732.44;;;30.39;34.01
35676;BME280;21790;42.668;23.298;2023-06-19T12:44:45;94731.56;;;30.10;35.36
35676;BME280;21790;42.668;23.298;2023-06-19T12:47:14;94731.91;;;30.23;34.79
35676;BME280;21790;42.668;23.298;2023-06-19T12:49:51;94731.09;;;30.40;34.27
35676;BME280;21790;42.668;23.298;2023-06-19T12:52:16;94725.47;;;30.23;34.73
35676;BME280;21790;42.668;23.298;2023-06-19T12:54:52;94729.56;;;30.29;34.21
35676;BME280;21790;42.668;23.298;2023-06-19T12:57:26;94725.69;;;30.34;34.63
35676;BME280;21790;42.668;23.298;2023-06-19T12:59:59;94734.34;;;30.27;34.41
35676;BME280;21790;42.668;23.298;2023-06-19T13:02:26;94733.88;;;30.21;34.75
35676;BME280;21790;42.668;23.298;2023-06-19T13:04:56;94740.09;;;30.37;34.01
35676;BME280;21790;42.668;23.298;2023-06-19T13:07:24;94733.66;;;30.36;33.56
35676;BME280;21790;42.668;23.298;2023-06-19T13:12:39;94731.78;;;30.21;32.58
35676;BME280;21790;42.668;23.298;2023-06-19T13:15:06;94727.50;;;30.13;33.17
35676;BME280;21790;42.668;23.298;2023-06-19T13:17:37;94728.59;;;30.17;33.16
35676;BME280;21790;42.668;23.298;2023-06-19T13:20:11;94732.41;;;30.29;32.88
35676;BME280;21790;42.668;23.298;2023-06-19T13:22:48;94728.72;;;30.46;33.00
35676;BME280;21790;42.668;23.298;2023-06-19T13:25:33;94713.41;;;30.42;32.67
35676;BME280;21790;42.668;23.298;2023-06-19T13:28:00;94728.31;;;30.50;32.88
35676;BME280;21790;42.668;23.298;2023-06-19T13:30:28;94720.75;;;30.45;32.73
35676;BME280;21790;42.668;23.298;2023-06-19T13:33:12;94730.00;;;30.26;31.92
35676;BME280;21790;42.668;23.298;2023-06-19T13:35:43;94729.78;;;30.14;32.57
35676;BME280;21790;42.668;23.298;2023-06-19T13:38:14;94730.00;;;30.26;32.33
35676;BME280;21790;42.668;23.298;2023-06-19T13:40:44;94725.25;;;30.38;31.82
35676;BME280;21790;42.668;23.298;2023-06-19T13:43:14;94722.34;;;30.55;31.52
35676;BME280;21790;42.668;23.298;2023-06-19T13:45:41;94728.78;;;30.56;31.58
35676;BME280;21790;42.668;23.298;2023-06-19T13:48:11;94720.94;;;30.47;32.18
35676;BME280;21790;42.668;23.298;2023-06-19T13:50:47;94728.78;;;30.56;31.85
35676;BME280;21790;42.668;23.298;2023-06-19T13:53:40;94728.69;;;30.37;31.80
35676;BME280;21790;42.668;23.298;2023-06-19T13:56:16;94705.63;;;30.15;31.38
35676;BME280;21790;42.668;23.298;2023-06-19T13:58:52;94713.41;;;30.42;30.92
35676;BME280;21790;42.668;23.298;2023-06-19T14:01:30;94714.44;;;30.37;30.80
35676;BME280;21790;42.668;23.298;2023-06-19T14:04:00;94727.50;;;30.40;31.61
35676;BME280;21790;42.668;23.298;2023-06-19T14:09:48;94709.91;;;30.33;31.25
35676;BME280;21790;42.668;23.298;2023-06-19T14:12:29;94707.41;;;30.38;31.33
35676;BME280;21790;42.668;23.298;2023-06-19T14:14:57;94717.88;;;30.35;31.34
35676;BME280;21790;42.668;23.298;2023-06-19T14:17:29;94704.66;;;30.30;30.87
35676;BME280;21790;42.668;23.298;2023-06-19T14:20:18;94716.63;;;30.28;31.29
35676;BME280;21790;42.668;23.298;2023-06-19T14:22:52;94713.84;;;30.38;31.28
35676;BME280;21790;42.668;23.298;2023-06-19T14:25:19;94688.34;;;29.86;32.16
35676;BME280;21790;42.668;23.298;2023-06-19T14:28:04;94703.75;;;30.27;31.30
35676;BME280;21790;42.668;23.298;2023-06-19T14:30:39;94710.38;;;30.40;31.01
35676;BME280;21790;42.668;23.298;2023-06-19T14:33:22;94702.50;;;30.48;31.39
35676;BME280;21790;42.668;23.298;2023-06-19T14:35:50;94697.34;;;30.37;31.18
35676;BME280;21790;42.668;23.298;2023-06-19T14:38:18;94698.84;;;30.38;30.97
35676;BME280;21790;42.668;23.298;2023-06-19T14:40:50;94701.47;;;30.53;30.85
35676;BME280;21790;42.668;23.298;2023-06-19T14:43:16;94692.97;;;30.35;30.58
35676;BME280;21790;42.668;23.298;2023-06-19T14:45:50;94696.59;;;30.36;31.13
35676;BME280;21790;42.668;23.298;2023-06-19T14:51:29;94692.88;;;30.43;31.13
35676;BME280;21790;42.668;23.298;2023-06-19T14:53:58;94696.63;;;30.46;30.93
35676;BME280;21790;42.668;23.298;2023-06-19T14:56:28;94698.47;;;30.51;31.20
35676;BME280;21790;42.668;23.298;2023-06-19T15:01:56;94695.78;;;30.26;31.49
35676;BME280;21790;42.668;23.298;2023-06-19T15:04:28;94692.63;;;30.22;31.13
35676;BME280;21790;42.668;23.298;2023-06-19T15:07:16;94696.09;;;30.30;31.31
35676;BME280;21790;42.668;23.298;2023-06-19T15:10:09;94668.84;;;30.10;31.47
35676;BME280;21790;42.668;23.298;2023-06-19T15:12:49;94687.38;;;30.28;31.83
35676;BME280;21790;42.668;23.298;2023-06-19T15:15:15;94693.00;;;30.09;32.25
35676;BME280;21790;42.668;23.298;2023-06-19T15:17:41;94686.16;;;30.21;32.41
35676;BME280;21790;42.668;23.298;2023-06-19T15:20:07;94688.19;;;30.11;33.29
35676;BME280;21790;42.668;23.298;2023-06-19T15:22:35;94686.16;;;30.21;32.69
35676;BME280;21790;42.668;23.298;2023-06-19T15:25:14;94685.44;;;30.30;32.66
35676;BME280;21790;42.668;23.298;2023-06-19T15:27:41;94680.34;;;30.02;32.96
35676;BME280;21790;42.668;23.298;2023-06-19T15:30:13;94686.16;;;30.21;32.79
35676;BME280;21790;42.668;23.298;2023-06-19T15:35:38;94691.81;;;30.12;32.71
35676;BME280;21790;42.668;23.298;2023-06-19T15:38:19;94694.34;;;30.08;33.13
35676;BME280;21790;42.668;23.298;2023-06-19T15:40:45;94694.59;;;30.02;33.35
35676;BME280;21790;42.668;23.298;2023-06-19T15:43:17;94686.72;;;30.10;33.24
35676;BME280;21790;42.668;23.298;2023-06-19T15:45:43;94682.22;;;29.90;33.82
35676;BME280;21790;42.668;23.298;2023-06-19T15:48:36;94689.97;;;30.07;33.05
35676;BME280;21790;42.668;23.298;2023-06-19T15:51:28;94693.63;;;30.17;33.06
35676;BME280;21790;42.668;23.298;2023-06-19T15:54:19;94698.25;;;30.12;33.42
35676;BME280;21790;42.668;23.298;2023-06-19T15:56:46;94693.59;;;30.07;33.92
35676;BME280;21790;42.668;23.298;2023-06-19T15:59:11;94686.72;;;30.10;33.53
35676;BME280;21790;42.668;23.298;2023-06-19T16:01:38;94697.31;;;30.00;33.17
35676;BME280;21790;42.668;23.298;2023-06-19T16:04:03;94691.72;;;29.92;32.79
35676;BME280;21790;42.668;23.298;2023-06-19T16:06:29;94686.81;;;30.03;33.28
35676;BME280;21790;42.668;23.298;2023-06-19T16:08:54;94693.44;;;30.05;33.17
35676;BME280;21790;42.668;23.298;2023-06-19T16:11:22;94694.66;;;30.12;33.19
35676;BME280;21790;42.668;23.298;2023-06-19T16:13:48;94694.03;;;30.04;33.03
35676;BME280;21790;42.668;23.298;2023-06-19T16:16:14;94701.91;;;29.96;33.33
35676;BME280;21790;42.668;23.298;2023-06-19T16:18:41;94692.66;;;29.78;33.89
35676;BME280;21790;42.668;23.298;2023-06-19T16:21:10;94702.84;;;29.81;33.86
35676;BME280;21790;42.668;23.298;2023-06-19T16:23:36;94708.22;;;29.77;34.03
35676;BME280;21790;42.668;23.298;2023-06-19T16:26:09;94700.50;;;29.87;33.85
35676;BME280;21790;42.668;23.298;2023-06-19T16:28:45;94706.72;;;29.93;33.73
35676;BME280;21790;42.668;23.298;2023-06-19T16:33:46;94704.94;;;29.98;33.89
35676;BME280;21790;42.668;23.298;2023-06-19T16:36:11;94709.13;;;29.97;33.74
35676;BME280;21790;42.668;23.298;2023-06-19T16:38:37;94709.69;;;29.95;33.45
35676;BME280;21790;42.668;23.298;2023-06-19T16:41:02;94712.56;;;29.95;33.25
35676;BME280;21790;42.668;23.298;2023-06-19T16:43:28;94717.94;;;29.91;33.63
35676;BME280;21790;42.668;23.298;2023-06-19T16:45:53;94715.41;;;29.95;33.18
35676;BME280;21790;42.668;23.298;2023-06-19T16:48:19;94712.16;;;29.99;33.14
35676;BME280;21790;42.668;23.298;2023-06-19T16:50:47;94716.78;;;29.94;33.30
35676;BME280;21790;42.668;23.298;2023-06-19T16:53:12;94715.75;;;29.99;33.53
35676;BME280;21790;42.668;23.298;2023-06-19T16:55:38;94710.63;;;29.98;33.50
35676;BME280;21790;42.668;23.298;2023-06-19T16:58:03;94711.88;;;30.04;33.63
35676;BME280;21790;42.668;23.298;2023-06-19T17:00:30;94713.84;;;30.11;33.31
35676;BME280;21790;42.668;23.298;2023-06-19T17:02:57;94717.13;;;30.08;33.34
35676;BME280;21790;42.668;23.298;2023-06-19T17:05:22;94713.69;;;30.09;33.08
35676;BME280;21790;42.668;23.298;2023-06-19T17:07:49;94725.69;;;30.08;33.51
35676;BME280;21790;42.668;23.298;2023-06-19T17:10:14;94725.25;;;30.11;33.44
35676;BME280;21790;42.668;23.298;2023-06-19T17:12:41;94721.75;;;30.03;33.55
35676;BME280;21790;42.668;23.298;2023-06-19T17:15:07;94729.59;;;30.12;33.48
35676;BME280;21790;42.668;23.298;2023-06-19T17:17:33;94724.16;;;30.07;33.57
35676;BME280;21790;42.668;23.298;2023-06-19T17:19:58;94730.31;;;30.03;33.80
35676;BME280;21790;42.668;23.298;2023-06-19T17:22:24;94734.63;;;29.95;34.31
35676;BME280;21790;42.668;23.298;2023-06-19T17:24:49;94737.13;;;29.90;34.54
35676;BME280;21790;42.668;23.298;2023-06-19T17:27:15;94738.44;;;29.89;34.64
35676;BME280;21790;42.668;23.298;2023-06-19T17:29:40;94737.28;;;29.92;34.20
35676;BME280;21790;42.668;23.298;2023-06-19T17:32:06;94746.06;;;29.87;34.41
35676;BME280;21790;42.668;23.298;2023-06-19T17:34:34;94737.34;;;29.85;34.15
35676;BME280;21790;42.668;23.298;2023-06-19T17:37:03;94746.34;;;29.81;34.75
35676;BME280;21790;42.668;23.298;2023-06-19T17:39:28;94756.41;;;29.82;34.33
35676;BME280;21790;42.668;23.298;2023-06-19T17:41:54;94750.69;;;29.82;34.23
35676;BME280;21790;42.668;23.298;2023-06-19T17:44:20;94747.34;;;29.76;34.43
35676;BME280;21790;42.668;23.298;2023-06-19T17:46:51;94751.53;;;29.75;34.74
35676;BME280;21790;42.668;23.298;2023-06-19T17:49:17;94749.44;;;29.76;34.67
35676;BME280;21790;42.668;23.298;2023-06-19T17:51:45;94750.88;;;29.67;34.46
35676;BME280;21790;42.668;23.298;2023-06-19T17:54:11;94757.16;;;29.66;34.76
35676;BME280;21790;42.668;23.298;2023-06-19T17:56:36;94753.31;;;29.53;34.82
35676;BME280;21790;42.668;23.298;2023-06-19T17:59:02;94764.53;;;29.51;35.30
35676;BME280;21790;42.668;23.298;2023-06-19T18:01:28;94757.75;;;29.47;35.29
35676;BME280;21790;42.668;23.298;2023-06-19T18:03:53;94759.25;;;29.48;35.56
35676;BME280;21790;42.668;23.298;2023-06-19T18:06:19;94756.84;;;29.44;35.29
35676;BME280;21790;42.668;23.298;2023-06-19T18:08:45;94765.19;;;29.42;35.46
35676;BME280;21790;42.668;23.298;2023-06-19T18:11:11;94767.72;;;29.38;35.33
35676;BME280;21790;42.668;23.298;2023-06-19T18:13:36;94773.22;;;29.36;35.44
35676;BME280;21790;42.668;23.298;2023-06-19T18:16:02;94776.09;;;29.36;35.65
35676;BME280;21790;42.668;23.298;2023-06-19T18:18:27;94772.69;;;29.30;nan
35676;BME280;21790;42.668;23.298;2023-06-19T18:20:53;94772.91;;;29.32;35.54
35676;BME280;21790;42.668;23.298;2023-06-19T18:23:21;94786.16;;;29.30;35.36
35676;BME280;21790;42.668;23.298;2023-06-19T18:25:48;94781.84;;;29.29;35.51
35676;BME280;21790;42.668;23.298;2023-06-19T18:28:13;94783.94;;;29.28;35.50
35676;BME280;21790;42.668;23.298;2023-06-19T18:30:39;94784.69;;;29.29;35.62
35676;BME280;21790;42.668;23.298;2023-06-19T18:33:05;94796.13;;;29.21;35.63
35676;BME280;21790;42.668;23.298;2023-06-19T18:35:30;94803.00;;;28.68;37.22
35676;BME280;21790;42.668;23.298;2023-06-19T18:37:58;94793.03;;;28.85;36.86
35676;BME280;21790;42.668;23.298;2023-06-19T18:40:28;94794.47;;;28.93;36.47
35676;BME280;21790;42.668;23.298;2023-06-19T18:46:11;94804.72;;;28.96;36.53
35676;BME280;21790;42.668;23.298;2023-06-19T18:48:37;94813.63;;;28.93;37.06
35676;BME280;21790;42.668;23.298;2023-06-19T18:51:03;94810.94;;;28.70;37.42
35676;BME280;21790;42.668;23.298;2023-06-19T18:53:28;94813.19;;;28.71;37.14
35676;BME280;21790;42.668;23.298;2023-06-19T18:55:54;94825.38;;;28.64;37.61
35676;BME280;21790;42.668;23.298;2023-06-19T18:58:24;94814.59;;;28.63;37.61
35676;BME280;21790;42.668;23.298;2023-06-19T19:00:50;94825.66;;;28.51;37.62
35676;BME280;21790;42.668;23.298;2023-06-19T19:03:16;94815.63;;;28.50;37.75
35676;BME280;21790;42.668;23.298;2023-06-19T19:05:43;94820.59;;;28.42;37.34
35676;BME280;21790;42.668;23.298;2023-06-19T19:08:08;94825.81;;;28.53;37.26
35676;BME280;21790;42.668;23.298;2023-06-19T19:10:37;94816.41;;;28.43;37.22
35676;BME280;21790;42.668;23.298;2023-06-19T19:13:03;94818.91;;;28.39;37.23
35676;BME280;21790;42.668;23.298;2023-06-19T19:15:28;94822.50;;;28.40;37.51
35676;BME280;21790;42.668;23.298;2023-06-19T19:17:54;94822.53;;;28.32;37.51
35676;BME280;21790;42.668;23.298;2023-06-19T19:20:20;94827.31;;;28.29;37.55
35676;BME280;21790;42.668;23.298;2023-06-19T19:22:46;94832.41;;;28.31;37.68
35676;BME280;21790;42.668;23.298;2023-06-19T19:25:12;94832.81;;;28.27;37.63
35676;BME280;21790;42.668;23.298;2023-06-19T19:27:37;94832.44;;;28.23;37.63
35676;BME280;21790;42.668;23.298;2023-06-19T19:30:06;94834.00;;;28.17;37.79
35676;BME280;21790;42.668;23.298;2023-06-19T19:32:31;94835.69;;;28.20;37.77
35676;BME280;21790;42.668;23.298;2023-06-19T19:34:57;94828.13;;;28.15;37.88
35676;BME280;21790;42.668;23.298;2023-06-19T19:37:23;94834.94;;;28.12;37.95
35676;BME280;21790;42.668;23.298;2023-06-19T19:39:49;94830.97;;;28.07;38.30
35676;BME280;21790;42.668;23.298;2023-06-19T19:42:15;94829.13;;;27.95;38.52
35676;BME280;21790;42.668;23.298;2023-06-19T19:44:43;94842.97;;;27.91;38.48
35676;BME280;21790;42.668;23.298;2023-06-19T19:47:08;94834.69;;;27.77;38.83
35676;BME280;21790;42.668;23.298;2023-06-19T19:49:34;94845.06;;;27.82;38.73
35676;BME280;21790;42.668;23.298;2023-06-19T19:52:00;94843.00;;;27.83;38.78
35676;BME280;21790;42.668;23.298;2023-06-19T19:54:30;94839.25;;;27.73;38.49
35676;BME280;21790;42.668;23.298;2023-06-19T19:56:55;94839.44;;;27.75;38.38